sensor_id;sensor_type;location;lat;lon;timestamp;P1;durP1;ratioP1;P2;durP2;ratioP2
11486;SDS011;10510;47.942;9.442;2022-09-21T00:01:19;8.70;;;3.88;;
11486;SDS011;10510;47.942;9.442;2022-09-21T00:03:23;9.70;;;4.22;;
11486;SDS011;10510;47.942;9.442;2022-09-21T00:05:24;10.30;;;4.60;;
11486;SDS011;10510;47.942;9.442;2022-09-21T00:07:24;15.60;;;5.38;;
11486;SDS011;10510;47.942;9.442;2022-09-21T00:09:24;11.13;;;4.40;;
11486;SDS011;10510;47.942;9.442;2022-09-21T00:11:26;6.25;;;3.78;;
11486;SDS011;10510;47.942;9.442;2022-09-21T00:13:28;6.47;;;3.50;;
11486;SDS011;10510;47.942;9.442;2022-09-21T00:15:29;10.52;;;4.15;;
11486;SDS011;10510;47.942;9.442;2022-09-21T00:17:30;8.85;;;3.75;;
11486;SDS011;10510;47.942;9.442;2022-09-21T00:19:30;11.60;;;4.55;;
11486;SDS011;10510;47.942;9.442;2022-09-21T00:21:30;9.98;;;3.72;;
11486;SDS011;10510;47.942;9.442;2022-09-21T00:23:32;8.60;;;3.47;;
11486;SDS011;10510;47.942;9.442;2022-09-21T00:25:34;6.43;;;3.40;;
11486;SDS011;10510;47.942;9.442;2022-09-21T00:27:34;7.15;;;4.05;;
11486;SDS011;10510;47.942;9.442;2022-09-21T00:29:34;9.18;;;3.58;;
11486;SDS011;10510;47.942;9.442;2022-09-21T00:31:35;6.75;;;3.35;;
11486;SDS011;10510;47.942;9.442;2022-09-21T00:33:35;7.88;;;3.55;;
11486;SDS011;10510;47.942;9.442;2022-09-21T00:35:36;7.70;;;3.28;;
11486;SDS011;10510;47.942;9.442;2022-09-21T00:37:37;9.00;;;3.30;;
11486;SDS011;10510;47.942;9.442;2022-09-21T00:39:37;8.23;;;4.18;;
11486;SDS011;10510;47.942;9.442;2022-09-21T00:41:37;7.50;;;3.60;;
11486;SDS011;10510;47.942;9.442;2022-09-21T00:43:41;7.10;;;3.42;;
11486;SDS011;10510;47.942;9.442;2022-09-21T00:47:50;7.13;;;3.85;;
11486;SDS011;10510;47.942;9.442;2022-09-21T00:49:52;8.93;;;3.53;;
11486;SDS011;10510;47.942;9.442;2022-09-21T00:51:55;8.57;;;3.28;;
11486;SDS011;10510;47.942;9.442;2022-09-21T00:53:59;8.25;;;4.00;;
11486;SDS011;10510;47.942;9.442;2022-09-21T00:56:02;8.18;;;4.03;;
11486;SDS011;10510;47.942;9.442;2022-09-21T00:58:09;7.68;;;3.65;;
11486;SDS011;10510;47.942;9.442;2022-09-21T01:00:14;7.97;;;3.72;;
11486;SDS011;10510;47.942;9.442;2022-09-21T01:02:15;9.43;;;3.75;;
11486;SDS011;10510;47.942;9.442;2022-09-21T01:04:18;7.70;;;4.38;;
11486;SDS011;10510;47.942;9.442;2022-09-21T01:06:20;5.25;;;3.60;;
11486;SDS011;10510;47.942;9.442;2022-09-21T01:08:20;12.77;;;3.90;;
11486;SDS011;10510;47.942;9.442;2022-09-21T01:10:23;10.38;;;4.28;;
11486;SDS011;10510;47.942;9.442;2022-09-21T01:12:29;5.78;;;3.55;;
11486;SDS011;10510;47.942;9.442;2022-09-21T01:14:56;7.00;;;3.80;;
11486;SDS011;10510;47.942;9.442;2022-09-21T01:17:08;7.47;;;3.00;;
11486;SDS011;10510;47.942;9.442;2022-09-21T01:31:32;6.05;;;3.20;;
11486;SDS011;10510;47.942;9.442;2022-09-21T01:33:57;12.27;;;4.05;;
11486;SDS011;10510;47.942;9.442;2022-09-21T01:36:06;8.77;;;3.20;;
11486;SDS011;10510;47.942;9.442;2022-09-21T01:38:14;10.32;;;3.97;;
11486;SDS011;10510;47.942;9.442;2022-09-21T01:40:23;8.85;;;3.75;;
11486;SDS011;10510;47.942;9.442;2022-09-21T01:42:27;10.60;;;3.72;;
11486;SDS011;10510;47.942;9.442;2022-09-21T01:44:30;14.70;;;3.83;;
11486;SDS011;10510;47.942;9.442;2022-09-21T01:46:35;10.20;;;4.53;;
11486;SDS011;10510;47.942;9.442;2022-09-21T01:48:37;9.80;;;4.28;;
11486;SDS011;10510;47.942;9.442;2022-09-21T01:50:43;7.20;;;3.47;;
11486;SDS011;10510;47.942;9.442;2022-09-21T01:52:55;8.10;;;2.90;;
11486;SDS011;10510;47.942;9.442;2022-09-21T01:55:06;3.63;;;2.47;;
11486;SDS011;10510;47.942;9.442;2022-09-21T01:57:19;6.25;;;3.08;;
11486;SDS011;10510;47.942;9.442;2022-09-21T02:01:47;6.75;;;3.50;;
11486;SDS011;10510;47.942;9.442;2022-09-21T02:04:00;8.88;;;3.00;;
11486;SDS011;10510;47.942;9.442;2022-09-21T02:06:05;8.75;;;3.97;;
11486;SDS011;10510;47.942;9.442;2022-09-21T02:08:07;8.18;;;4.13;;
11486;SDS011;10510;47.942;9.442;2022-09-21T02:10:10;7.43;;;4.05;;
11486;SDS011;10510;47.942;9.442;2022-09-21T02:12:16;6.00;;;3.40;;
11486;SDS011;10510;47.942;9.442;2022-09-21T02:14:19;7.93;;;3.97;;
11486;SDS011;10510;47.942;9.442;2022-09-21T02:16:37;12.05;;;4.50;;
11486;SDS011;10510;47.942;9.442;2022-09-21T02:18:53;8.07;;;4.38;;
11486;SDS011;10510;47.942;9.442;2022-09-21T02:21:02;11.52;;;4.78;;
11486;SDS011;10510;47.942;9.442;2022-09-21T02:23:13;7.85;;;4.10;;
11486;SDS011;10510;47.942;9.442;2022-09-21T02:25:49;6.03;;;3.08;;
11486;SDS011;10510;47.942;9.442;2022-09-21T02:27:55;5.30;;;3.10;;
11486;SDS011;10510;47.942;9.442;2022-09-21T02:30:07;4.90;;;3.17;;
11486;SDS011;10510;47.942;9.442;2022-09-21T02:36:48;5.10;;;3.22;;
11486;SDS011;10510;47.942;9.442;2022-09-21T02:39:09;6.50;;;3.78;;
11486;SDS011;10510;47.942;9.442;2022-09-21T02:41:25;9.55;;;4.03;;
11486;SDS011;10510;47.942;9.442;2022-09-21T02:43:31;6.63;;;3.75;;
11486;SDS011;10510;47.942;9.442;2022-09-21T02:45:43;7.60;;;4.20;;
11486;SDS011;10510;47.942;9.442;2022-09-21T02:47:51;6.30;;;3.78;;
11486;SDS011;10510;47.942;9.442;2022-09-21T02:50:00;7.03;;;3.78;;
11486;SDS011;10510;47.942;9.442;2022-09-21T02:52:08;6.75;;;3.95;;
11486;SDS011;10510;47.942;9.442;2022-09-21T02:54:13;10.73;;;4.05;;
11486;SDS011;10510;47.942;9.442;2022-09-21T02:56:16;7.40;;;4.05;;
11486;SDS011;10510;47.942;9.442;2022-09-21T02:58:17;7.25;;;3.60;;
11486;SDS011;10510;47.942;9.442;2022-09-21T03:00:20;8.93;;;4.10;;
11486;SDS011;10510;47.942;9.442;2022-09-21T03:02:20;14.15;;;4.38;;
11486;SDS011;10510;47.942;9.442;2022-09-21T03:04:21;7.03;;;3.42;;
11486;SDS011;10510;47.942;9.442;2022-09-21T03:06:22;9.98;;;4.70;;
11486;SDS011;10510;47.942;9.442;2022-09-21T03:08:22;7.70;;;4.65;;
11486;SDS011;10510;47.942;9.442;2022-09-21T03:10:22;7.32;;;3.50;;
11486;SDS011;10510;47.942;9.442;2022-09-21T03:12:23;12.10;;;4.90;;
11486;SDS011;10510;47.942;9.442;2022-09-21T03:14:24;7.95;;;4.38;;
11486;SDS011;10510;47.942;9.442;2022-09-21T03:16:24;10.07;;;5.35;;
11486;SDS011;10510;47.942;9.442;2022-09-21T03:18:24;10.60;;;4.22;;
11486;SDS011;10510;47.942;9.442;2022-09-21T03:20:24;12.48;;;4.90;;
11486;SDS011;10510;47.942;9.442;2022-09-21T03:22:25;9.27;;;4.45;;
11486;SDS011;10510;47.942;9.442;2022-09-21T03:24:26;8.77;;;4.40;;
11486;SDS011;10510;47.942;9.442;2022-09-21T03:26:44;8.93;;;4.63;;
11486;SDS011;10510;47.942;9.442;2022-09-21T03:28:45;6.35;;;4.20;;
11486;SDS011;10510;47.942;9.442;2022-09-21T03:30:45;10.02;;;4.65;;
11486;SDS011;10510;47.942;9.442;2022-09-21T03:32:48;8.82;;;4.60;;
11486;SDS011;10510;47.942;9.442;2022-09-21T03:34:49;9.27;;;4.20;;
11486;SDS011;10510;47.942;9.442;2022-09-21T03:36:49;9.15;;;4.38;;
11486;SDS011;10510;47.942;9.442;2022-09-21T03:38:50;10.13;;;5.40;;
11486;SDS011;10510;47.942;9.442;2022-09-21T03:40:50;7.45;;;4.53;;
11486;SDS011;10510;47.942;9.442;2022-09-21T03:42:50;12.52;;;6.28;;
11486;SDS011;10510;47.942;9.442;2022-09-21T03:44:50;12.35;;;7.25;;
11486;SDS011;10510;47.942;9.442;2022-09-21T03:46:51;12.43;;;9.52;;
11486;SDS011;10510;47.942;9.442;2022-09-21T03:48:52;13.02;;;7.03;;
11486;SDS011;10510;47.942;9.442;2022-09-21T03:50:53;13.95;;;9.68;;
11486;SDS011;10510;47.942;9.442;2022-09-21T03:52:54;12.45;;;9.68;;
11486;SDS011;10510;47.942;9.442;2022-09-21T03:54:54;13.95;;;9.25;;
11486;SDS011;10510;47.942;9.442;2022-09-21T03:56:55;12.57;;;7.03;;
11486;SDS011;10510;47.942;9.442;2022-09-21T03:58:55;13.38;;;7.25;;
11486;SDS011;10510;47.942;9.442;2022-09-21T04:00:59;12.20;;;6.88;;
11486;SDS011;10510;47.942;9.442;2022-09-21T04:03:00;11.95;;;6.65;;
11486;SDS011;10510;47.942;9.442;2022-09-21T04:05:01;10.65;;;5.65;;
11486;SDS011;10510;47.942;9.442;2022-09-21T04:07:01;11.23;;;6.50;;
11486;SDS011;10510;47.942;9.442;2022-09-21T04:09:01;17.75;;;6.15;;
11486;SDS011;10510;47.942;9.442;2022-09-21T04:11:09;14.95;;;6.63;;
11486;SDS011;10510;47.942;9.442;2022-09-21T04:13:13;14.45;;;7.88;;
11486;SDS011;10510;47.942;9.442;2022-09-21T04:15:14;16.25;;;7.97;;
11486;SDS011;10510;47.942;9.442;2022-09-21T04:17:18;17.58;;;8.30;;
11486;SDS011;10510;47.942;9.442;2022-09-21T04:19:18;18.58;;;8.73;;
11486;SDS011;10510;47.942;9.442;2022-09-21T04:21:20;16.73;;;9.20;;
11486;SDS011;10510;47.942;9.442;2022-09-21T04:23:21;16.63;;;8.85;;
11486;SDS011;10510;47.942;9.442;2022-09-21T04:25:21;21.85;;;7.80;;
11486;SDS011;10510;47.942;9.442;2022-09-21T04:27:22;15.38;;;8.52;;
11486;SDS011;10510;47.942;9.442;2022-09-21T04:29:23;17.83;;;8.68;;
11486;SDS011;10510;47.942;9.442;2022-09-21T04:31:24;14.50;;;8.38;;
11486;SDS011;10510;47.942;9.442;2022-09-21T04:33:25;22.48;;;9.70;;
11486;SDS011;10510;47.942;9.442;2022-09-21T04:35:25;17.65;;;8.75;;
11486;SDS011;10510;47.942;9.442;2022-09-21T04:37:25;15.95;;;8.65;;
11486;SDS011;10510;47.942;9.442;2022-09-21T04:39:26;16.38;;;9.15;;
11486;SDS011;10510;47.942;9.442;2022-09-21T04:41:26;20.88;;;9.02;;
11486;SDS011;10510;47.942;9.442;2022-09-21T04:43:26;19.23;;;9.25;;
11486;SDS011;10510;47.942;9.442;2022-09-21T04:45:27;17.17;;;10.40;;
11486;SDS011;10510;47.942;9.442;2022-09-21T04:47:30;18.10;;;10.23;;
11486;SDS011;10510;47.942;9.442;2022-09-21T04:49:30;21.50;;;9.50;;
11486;SDS011;10510;47.942;9.442;2022-09-21T04:51:30;20.17;;;10.30;;
11486;SDS011;10510;47.942;9.442;2022-09-21T04:53:31;19.40;;;10.15;;
11486;SDS011;10510;47.942;9.442;2022-09-21T04:55:31;18.73;;;9.68;;
11486;SDS011;10510;47.942;9.442;2022-09-21T04:57:31;15.65;;;10.38;;
11486;SDS011;10510;47.942;9.442;2022-09-21T04:59:32;17.30;;;10.30;;
11486;SDS011;10510;47.942;9.442;2022-09-21T05:01:32;21.17;;;10.57;;
11486;SDS011;10510;47.942;9.442;2022-09-21T05:03:32;18.00;;;10.52;;
11486;SDS011;10510;47.942;9.442;2022-09-21T05:05:33;30.58;;;9.93;;
11486;SDS011;10510;47.942;9.442;2022-09-21T05:07:33;18.80;;;9.88;;
11486;SDS011;10510;47.942;9.442;2022-09-21T05:09:33;15.85;;;10.02;;
11486;SDS011;10510;47.942;9.442;2022-09-21T05:11:52;15.90;;;9.90;;
11486;SDS011;10510;47.942;9.442;2022-09-21T05:13:53;19.58;;;10.13;;
11486;SDS011;10510;47.942;9.442;2022-09-21T05:15:53;22.45;;;9.93;;
11486;SDS011;10510;47.942;9.442;2022-09-21T05:17:53;20.27;;;9.30;;
11486;SDS011;10510;47.942;9.442;2022-09-21T05:19:54;21.98;;;9.63;;
11486;SDS011;10510;47.942;9.442;2022-09-21T05:21:54;17.50;;;8.68;;
11486;SDS011;10510;47.942;9.442;2022-09-21T05:23:54;21.70;;;9.98;;
11486;SDS011;10510;47.942;9.442;2022-09-21T05:25:57;22.42;;;9.82;;
11486;SDS011;10510;47.942;9.442;2022-09-21T05:27:58;21.13;;;9.48;;
11486;SDS011;10510;47.942;9.442;2022-09-21T05:29:58;21.92;;;11.25;;
11486;SDS011;10510;47.942;9.442;2022-09-21T05:39:25;35.20;;;13.07;;
11486;SDS011;10510;47.942;9.442;2022-09-21T05:41:26;25.70;;;11.05;;
11486;SDS011;10510;47.942;9.442;2022-09-21T05:43:26;21.70;;;10.18;;
11486;SDS011;10510;47.942;9.442;2022-09-21T05:45:27;27.83;;;10.60;;
11486;SDS011;10510;47.942;9.442;2022-09-21T05:50:21;29.23;;;10.00;;
11486;SDS011;10510;47.942;9.442;2022-09-21T05:54:49;18.95;;;8.30;;
11486;SDS011;10510;47.942;9.442;2022-09-21T06:04:03;15.05;;;7.50;;
11486;SDS011;10510;47.942;9.442;2022-09-21T06:06:03;14.20;;;7.45;;
11486;SDS011;10510;47.942;9.442;2022-09-21T06:08:03;13.52;;;7.95;;
11486;SDS011;10510;47.942;9.442;2022-09-21T06:10:04;14.60;;;6.97;;
11486;SDS011;10510;47.942;9.442;2022-09-21T06:12:04;13.63;;;8.00;;
11486;SDS011;10510;47.942;9.442;2022-09-21T06:14:05;16.45;;;7.68;;
11486;SDS011;10510;47.942;9.442;2022-09-21T06:16:05;15.68;;;8.20;;
11486;SDS011;10510;47.942;9.442;2022-09-21T06:18:07;12.82;;;7.38;;
11486;SDS011;10510;47.942;9.442;2022-09-21T06:20:08;14.75;;;7.97;;
11486;SDS011;10510;47.942;9.442;2022-09-21T06:22:08;18.23;;;8.60;;
11486;SDS011;10510;47.942;9.442;2022-09-21T06:24:08;16.23;;;8.43;;
11486;SDS011;10510;47.942;9.442;2022-09-21T06:26:09;16.23;;;8.77;;
11486;SDS011;10510;47.942;9.442;2022-09-21T06:28:12;17.80;;;8.55;;
11486;SDS011;10510;47.942;9.442;2022-09-21T06:30:12;17.65;;;8.02;;
11486;SDS011;10510;47.942;9.442;2022-09-21T06:32:13;14.63;;;7.63;;
11486;SDS011;10510;47.942;9.442;2022-09-21T06:34:13;13.45;;;7.30;;
11486;SDS011;10510;47.942;9.442;2022-09-21T06:36:13;11.95;;;6.43;;
11486;SDS011;10510;47.942;9.442;2022-09-21T06:38:14;16.83;;;6.85;;
11486;SDS011;10510;47.942;9.442;2022-09-21T06:40:14;10.32;;;6.70;;
11486;SDS011;10510;47.942;9.442;2022-09-21T06:42:14;10.32;;;6.88;;
11486;SDS011;10510;47.942;9.442;2022-09-21T06:44:14;14.43;;;9.50;;
11486;SDS011;10510;47.942;9.442;2022-09-21T06:46:15;17.25;;;7.07;;
11486;SDS011;10510;47.942;9.442;2022-09-21T06:48:15;17.33;;;7.05;;
11486;SDS011;10510;47.942;9.442;2022-09-21T06:50:15;13.95;;;5.57;;
11486;SDS011;10510;47.942;9.442;2022-09-21T06:52:16;11.57;;;6.07;;
11486;SDS011;10510;47.942;9.442;2022-09-21T06:54:16;13.30;;;6.10;;
11486;SDS011;10510;47.942;9.442;2022-09-21T06:56:18;18.05;;;5.90;;
11486;SDS011;10510;47.942;9.442;2022-09-21T06:58:18;12.25;;;5.82;;
11486;SDS011;10510;47.942;9.442;2022-09-21T07:00:18;12.73;;;5.78;;
11486;SDS011;10510;47.942;9.442;2022-09-21T07:02:19;20.17;;;5.00;;
11486;SDS011;10510;47.942;9.442;2022-09-21T07:04:20;10.45;;;5.80;;
11486;SDS011;10510;47.942;9.442;2022-09-21T07:06:23;10.88;;;5.30;;
11486;SDS011;10510;47.942;9.442;2022-09-21T07:08:23;11.25;;;5.07;;
11486;SDS011;10510;47.942;9.442;2022-09-21T07:10:24;14.90;;;5.20;;
11486;SDS011;10510;47.942;9.442;2022-09-21T07:12:24;11.35;;;5.05;;
11486;SDS011;10510;47.942;9.442;2022-09-21T07:14:25;7.63;;;5.13;;
11486;SDS011;10510;47.942;9.442;2022-09-21T07:16:25;11.65;;;5.30;;
11486;SDS011;10510;47.942;9.442;2022-09-21T07:18:26;10.65;;;5.75;;
11486;SDS011;10510;47.942;9.442;2022-09-21T07:20:27;9.70;;;5.10;;
11486;SDS011;10510;47.942;9.442;2022-09-21T07:22:32;16.08;;;5.20;;
11486;SDS011;10510;47.942;9.442;2022-09-21T07:24:32;8.45;;;4.82;;
11486;SDS011;10510;47.942;9.442;2022-09-21T07:26:32;8.98;;;4.40;;
11486;SDS011;10510;47.942;9.442;2022-09-21T07:28:33;7.05;;;4.30;;
11486;SDS011;10510;47.942;9.442;2022-09-21T07:30:35;9.95;;;4.72;;
11486;SDS011;10510;47.942;9.442;2022-09-21T07:32:36;10.70;;;4.30;;
11486;SDS011;10510;47.942;9.442;2022-09-21T07:34:36;8.40;;;4.43;;
11486;SDS011;10510;47.942;9.442;2022-09-21T07:36:36;10.80;;;4.95;;
11486;SDS011;10510;47.942;9.442;2022-09-21T07:38:37;11.20;;;4.00;;
11486;SDS011;10510;47.942;9.442;2022-09-21T07:40:39;9.30;;;4.30;;
11486;SDS011;10510;47.942;9.442;2022-09-21T07:42:39;8.80;;;3.80;;
11486;SDS011;10510;47.942;9.442;2022-09-21T07:44:40;6.88;;;3.80;;
11486;SDS011;10510;47.942;9.442;2022-09-21T07:46:40;8.75;;;3.75;;
11486;SDS011;10510;47.942;9.442;2022-09-21T07:48:41;10.75;;;3.85;;
11486;SDS011;10510;47.942;9.442;2022-09-21T07:50:41;8.27;;;3.58;;
11486;SDS011;10510;47.942;9.442;2022-09-21T07:52:41;7.97;;;3.33;;
11486;SDS011;10510;47.942;9.442;2022-09-21T07:54:42;6.25;;;3.13;;
11486;SDS011;10510;47.942;9.442;2022-09-21T07:56:44;9.65;;;3.33;;
11486;SDS011;10510;47.942;9.442;2022-09-21T07:59:04;6.20;;;3.15;;
11486;SDS011;10510;47.942;9.442;2022-09-21T08:01:05;5.40;;;2.95;;
11486;SDS011;10510;47.942;9.442;2022-09-21T08:03:05;9.43;;;3.60;;
11486;SDS011;10510;47.942;9.442;2022-09-21T08:05:06;5.47;;;2.80;;
11486;SDS011;10510;47.942;9.442;2022-09-21T08:07:06;6.88;;;2.83;;
11486;SDS011;10510;47.942;9.442;2022-09-21T08:09:07;5.18;;;2.28;;
11486;SDS011;10510;47.942;9.442;2022-09-21T08:11:07;7.43;;;2.40;;
11486;SDS011;10510;47.942;9.442;2022-09-21T08:13:08;5.47;;;2.72;;
11486;SDS011;10510;47.942;9.442;2022-09-21T08:15:08;7.43;;;3.20;;
11486;SDS011;10510;47.942;9.442;2022-09-21T08:17:10;7.05;;;2.83;;
11486;SDS011;10510;47.942;9.442;2022-09-21T08:19:10;7.22;;;2.67;;
11486;SDS011;10510;47.942;9.442;2022-09-21T08:21:10;6.80;;;2.58;;
11486;SDS011;10510;47.942;9.442;2022-09-21T08:23:11;6.15;;;2.47;;
11486;SDS011;10510;47.942;9.442;2022-09-21T08:25:13;7.60;;;2.75;;
11486;SDS011;10510;47.942;9.442;2022-09-21T08:27:13;6.78;;;3.10;;
11486;SDS011;10510;47.942;9.442;2022-09-21T08:29:13;5.97;;;1.98;;
11486;SDS011;10510;47.942;9.442;2022-09-21T08:31:15;4.05;;;2.60;;
11486;SDS011;10510;47.942;9.442;2022-09-21T08:33:18;5.32;;;2.13;;
11486;SDS011;10510;47.942;9.442;2022-09-21T08:35:18;8.57;;;2.70;;
11486;SDS011;10510;47.942;9.442;2022-09-21T08:37:18;7.20;;;2.60;;
11486;SDS011;10510;47.942;9.442;2022-09-21T08:39:20;6.68;;;2.72;;
11486;SDS011;10510;47.942;9.442;2022-09-21T08:41:41;4.78;;;2.45;;
11486;SDS011;10510;47.942;9.442;2022-09-21T08:43:56;5.18;;;2.40;;
11486;SDS011;10510;47.942;9.442;2022-09-21T08:46:06;8.27;;;2.40;;
11486;SDS011;10510;47.942;9.442;2022-09-21T08:48:16;5.53;;;2.20;;
11486;SDS011;10510;47.942;9.442;2022-09-21T08:52:20;4.40;;;2.13;;
11486;SDS011;10510;47.942;9.442;2022-09-21T08:56:42;3.90;;;1.90;;
11486;SDS011;10510;47.942;9.442;2022-09-21T08:58:43;5.63;;;2.67;;
11486;SDS011;10510;47.942;9.442;2022-09-21T09:00:43;4.60;;;2.20;;
11486;SDS011;10510;47.942;9.442;2022-09-21T09:06:00;5.90;;;2.58;;
11486;SDS011;10510;47.942;9.442;2022-09-21T09:07:57;5.05;;;2.50;;
11486;SDS011;10510;47.942;9.442;2022-09-21T09:14:38;5.20;;;2.20;;
11486;SDS011;10510;47.942;9.442;2022-09-21T09:21:49;6.55;;;2.17;;
11486;SDS011;10510;47.942;9.442;2022-09-21T09:23:51;2.90;;;1.80;;
11486;SDS011;10510;47.942;9.442;2022-09-21T09:26:04;4.22;;;1.67;;
11486;SDS011;10510;47.942;9.442;2022-09-21T09:28:15;4.53;;;1.42;;
11486;SDS011;10510;47.942;9.442;2022-09-21T09:30:27;5.97;;;1.90;;
11486;SDS011;10510;47.942;9.442;2022-09-21T09:32:35;5.57;;;1.83;;
11486;SDS011;10510;47.942;9.442;2022-09-21T09:39:32;6.35;;;1.67;;
11486;SDS011;10510;47.942;9.442;2022-09-21T09:51:11;6.20;;;2.00;;
11486;SDS011;10510;47.942;9.442;2022-09-21T09:53:13;5.20;;;1.75;;
11486;SDS011;10510;47.942;9.442;2022-09-21T09:55:19;5.75;;;2.40;;
11486;SDS011;10510;47.942;9.442;2022-09-21T09:57:26;5.75;;;2.50;;
11486;SDS011;10510;47.942;9.442;2022-09-21T10:00:11;9.77;;;2.17;;
11486;SDS011;10510;47.942;9.442;2022-09-21T10:01:58;6.72;;;2.35;;
11486;SDS011;10510;47.942;9.442;2022-09-21T10:04:03;3.83;;;1.80;;
11486;SDS011;10510;47.942;9.442;2022-09-21T10:06:13;12.27;;;2.30;;
11486;SDS011;10510;47.942;9.442;2022-09-21T10:10:36;5.47;;;2.03;;
11486;SDS011;10510;47.942;9.442;2022-09-21T10:12:40;7.00;;;1.10;;
11486;SDS011;10510;47.942;9.442;2022-09-21T10:14:48;2.72;;;1.10;;
11486;SDS011;10510;47.942;9.442;2022-09-21T10:16:51;5.00;;;1.30;;
11486;SDS011;10510;47.942;9.442;2022-09-21T10:18:53;2.72;;;1.15;;
11486;SDS011;10510;47.942;9.442;2022-09-21T10:21:02;2.70;;;1.20;;
11486;SDS011;10510;47.942;9.442;2022-09-21T10:23:08;3.13;;;1.30;;
11486;SDS011;10510;47.942;9.442;2022-09-21T10:25:15;2.75;;;1.15;;
11486;SDS011;10510;47.942;9.442;2022-09-21T10:27:21;4.68;;;1.20;;
11486;SDS011;10510;47.942;9.442;2022-09-21T10:29:37;3.28;;;1.30;;
11486;SDS011;10510;47.942;9.442;2022-09-21T10:32:00;4.00;;;1.38;;
11486;SDS011;10510;47.942;9.442;2022-09-21T10:34:14;1.67;;;0.90;;
11486;SDS011;10510;47.942;9.442;2022-09-21T10:36:23;5.07;;;1.20;;
11486;SDS011;10510;47.942;9.442;2022-09-21T10:38:25;4.10;;;1.42;;
11486;SDS011;10510;47.942;9.442;2022-09-21T10:40:29;4.55;;;1.08;;
11486;SDS011;10510;47.942;9.442;2022-09-21T10:42:36;2.03;;;1.05;;
11486;SDS011;10510;47.942;9.442;2022-09-21T10:44:45;4.57;;;1.48;;
11486;SDS011;10510;47.942;9.442;2022-09-21T10:46:48;2.47;;;1.00;;
11486;SDS011;10510;47.942;9.442;2022-09-21T10:48:49;4.10;;;1.08;;
11486;SDS011;10510;47.942;9.442;2022-09-21T10:50:50;6.93;;;1.60;;
11486;SDS011;10510;47.942;9.442;2022-09-21T10:53:26;5.25;;;1.25;;
11486;SDS011;10510;47.942;9.442;2022-09-21T10:55:29;3.28;;;1.05;;
11486;SDS011;10510;47.942;9.442;2022-09-21T10:57:31;3.67;;;1.08;;
11486;SDS011;10510;47.942;9.442;2022-09-21T10:59:35;4.63;;;0.98;;
11486;SDS011;10510;47.942;9.442;2022-09-21T11:01:36;4.82;;;1.10;;
11486;SDS011;10510;47.942;9.442;2022-09-21T11:03:46;11.07;;;1.48;;
11486;SDS011;10510;47.942;9.442;2022-09-21T11:05:50;5.65;;;0.98;;
11486;SDS011;10510;47.942;9.442;2022-09-21T11:07:58;2.92;;;1.10;;
11486;SDS011;10510;47.942;9.442;2022-09-21T11:12:39;5.95;;;1.10;;
11486;SDS011;10510;47.942;9.442;2022-09-21T11:14:53;4.55;;;0.88;;
11486;SDS011;10510;47.942;9.442;2022-09-21T11:17:06;6.32;;;1.05;;
11486;SDS011;10510;47.942;9.442;2022-09-21T11:23:53;2.45;;;1.38;;
11486;SDS011;10510;47.942;9.442;2022-09-21T11:26:11;1.63;;;0.60;;
11486;SDS011;10510;47.942;9.442;2022-09-21T11:28:22;5.22;;;0.80;;
11486;SDS011;10510;47.942;9.442;2022-09-21T11:30:30;3.10;;;1.10;;
11486;SDS011;10510;47.942;9.442;2022-09-21T11:35:13;1.70;;;0.80;;
11486;SDS011;10510;47.942;9.442;2022-09-21T11:44:56;1.75;;;0.80;;
11486;SDS011;10510;47.942;9.442;2022-09-21T11:49:54;3.35;;;1.40;;
11486;SDS011;10510;47.942;9.442;2022-09-21T11:58:49;4.57;;;0.80;;
11486;SDS011;10510;47.942;9.442;2022-09-21T12:06:05;1.13;;;0.77;;
11486;SDS011;10510;47.942;9.442;2022-09-21T12:12:39;2.35;;;0.60;;
11486;SDS011;10510;47.942;9.442;2022-09-21T12:16:58;1.70;;;0.80;;
11486;SDS011;10510;47.942;9.442;2022-09-21T12:19:02;2.63;;;0.85;;
11486;SDS011;10510;47.942;9.442;2022-09-21T12:21:15;3.03;;;0.80;;
11486;SDS011;10510;47.942;9.442;2022-09-21T12:25:41;9.02;;;0.93;;
11486;SDS011;10510;47.942;9.442;2022-09-21T12:27:51;1.67;;;0.80;;
11486;SDS011;10510;47.942;9.442;2022-09-21T12:29:59;1.45;;;0.63;;
11486;SDS011;10510;47.942;9.442;2022-09-21T12:32:10;3.60;;;0.90;;
11486;SDS011;10510;47.942;9.442;2022-09-21T12:34:39;3.08;;;0.90;;
11486;SDS011;10510;47.942;9.442;2022-09-21T12:36:43;3.00;;;1.00;;
11486;SDS011;10510;47.942;9.442;2022-09-21T12:43:34;4.55;;;0.60;;
11486;SDS011;10510;47.942;9.442;2022-09-21T12:45:45;1.75;;;1.00;;
11486;SDS011;10510;47.942;9.442;2022-09-21T12:50:28;5.68;;;1.08;;
11486;SDS011;10510;47.942;9.442;2022-09-21T12:52:34;3.40;;;0.60;;
11486;SDS011;10510;47.942;9.442;2022-09-21T12:54:39;2.38;;;1.00;;
11486;SDS011;10510;47.942;9.442;2022-09-21T12:56:48;3.50;;;0.80;;
11486;SDS011;10510;47.942;9.442;2022-09-21T13:03:44;5.43;;;1.08;;
11486;SDS011;10510;47.942;9.442;2022-09-21T13:08:41;1.17;;;0.63;;
11486;SDS011;10510;47.942;9.442;2022-09-21T13:12:56;2.25;;;0.88;;
11486;SDS011;10510;47.942;9.442;2022-09-21T13:15:02;0.82;;;0.50;;
11486;SDS011;10510;47.942;9.442;2022-09-21T13:17:22;1.75;;;0.57;;
11486;SDS011;10510;47.942;9.442;2022-09-21T13:19:26;0.88;;;0.45;;
11486;SDS011;10510;47.942;9.442;2022-09-21T13:21:30;3.80;;;0.80;;
11486;SDS011;10510;47.942;9.442;2022-09-21T13:23:36;1.00;;;0.40;;
11486;SDS011;10510;47.942;9.442;2022-09-21T13:25:41;1.17;;;0.52;;
11486;SDS011;10510;47.942;9.442;2022-09-21T13:27:57;1.65;;;0.70;;
11486;SDS011;10510;47.942;9.442;2022-09-21T13:30:21;2.75;;;1.17;;
11486;SDS011;10510;47.942;9.442;2022-09-21T13:32:48;3.08;;;0.60;;
11486;SDS011;10510;47.942;9.442;2022-09-21T13:34:50;1.40;;;0.57;;
11486;SDS011;10510;47.942;9.442;2022-09-21T13:39:18;3.70;;;0.68;;
11486;SDS011;10510;47.942;9.442;2022-09-21T13:43:19;0.67;;;0.60;;
11486;SDS011;10510;47.942;9.442;2022-09-21T13:47:32;5.85;;;0.60;;
11486;SDS011;10510;47.942;9.442;2022-09-21T13:49:39;2.42;;;0.43;;
11486;SDS011;10510;47.942;9.442;2022-09-21T13:54:12;2.30;;;0.55;;
11486;SDS011;10510;47.942;9.442;2022-09-21T13:56:17;1.02;;;0.52;;
11486;SDS011;10510;47.942;9.442;2022-09-21T13:58:26;2.13;;;0.60;;
11486;SDS011;10510;47.942;9.442;2022-09-21T14:00:32;5.15;;;0.70;;
11486;SDS011;10510;47.942;9.442;2022-09-21T14:02:43;2.17;;;0.68;;
11486;SDS011;10510;47.942;9.442;2022-09-21T14:04:53;1.45;;;0.52;;
11486;SDS011;10510;47.942;9.442;2022-09-21T14:07:05;4.10;;;0.90;;
11486;SDS011;10510;47.942;9.442;2022-09-21T14:09:16;1.75;;;0.45;;
11486;SDS011;10510;47.942;9.442;2022-09-21T14:11:38;4.38;;;0.68;;
11486;SDS011;10510;47.942;9.442;2022-09-21T14:13:46;1.30;;;0.60;;
11486;SDS011;10510;47.942;9.442;2022-09-21T14:18:36;2.28;;;0.80;;
11486;SDS011;10510;47.942;9.442;2022-09-21T14:20:37;2.67;;;0.80;;
11486;SDS011;10510;47.942;9.442;2022-09-21T14:22:38;2.85;;;0.60;;
11486;SDS011;10510;47.942;9.442;2022-09-21T14:26:49;1.83;;;0.65;;
11486;SDS011;10510;47.942;9.442;2022-09-21T14:28:53;2.97;;;0.70;;
11486;SDS011;10510;47.942;9.442;2022-09-21T14:30:54;4.13;;;0.55;;
11486;SDS011;10510;47.942;9.442;2022-09-21T14:39:49;1.33;;;0.50;;
11486;SDS011;10510;47.942;9.442;2022-09-21T14:41:50;1.67;;;0.60;;
11486;SDS011;10510;47.942;9.442;2022-09-21T14:43:55;1.85;;;0.82;;
11486;SDS011;10510;47.942;9.442;2022-09-21T14:48:07;2.65;;;0.60;;
11486;SDS011;10510;47.942;9.442;2022-09-21T14:50:30;0.70;;;0.50;;
11486;SDS011;10510;47.942;9.442;2022-09-21T14:57:42;2.22;;;0.90;;
11486;SDS011;10510;47.942;9.442;2022-09-21T15:02:24;1.70;;;0.60;;
11486;SDS011;10510;47.942;9.442;2022-09-21T15:04:42;0.57;;;0.30;;
11486;SDS011;10510;47.942;9.442;2022-09-21T15:12:34;2.28;;;1.08;;
11486;SDS011;10510;47.942;9.442;2022-09-21T15:17:26;3.10;;;1.00;;
11486;SDS011;10510;47.942;9.442;2022-09-21T15:19:32;1.02;;;0.43;;